sensor_id;sensor_type;location;lat;lon;timestamp;temperature;humidity
61151;DHT22;47029;50.994;2.876;2022-08-14T00:00:59;23.00;74.20
61151;DHT22;47029;50.994;2.876;2022-08-14T00:03:28;23.00;74.40
61151;DHT22;47029;50.994;2.876;2022-08-14T00:05:55;22.80;74.40
61151;DHT22;47029;50.994;2.876;2022-08-14T00:08:21;22.60;75.10
61151;DHT22;47029;50.994;2.876;2022-08-14T00:10:47;22.70;75.20
61151;DHT22;47029;50.994;2.876;2022-08-14T00:13:14;22.70;75.30
61151;DHT22;47029;50.994;2.876;2022-08-14T00:15:43;22.60;75.20
61151;DHT22;47029;50.994;2.876;2022-08-14T00:18:12;22.50;75.60
61151;DHT22;47029;50.994;2.876;2022-08-14T00:20:40;22.60;75.50
61151;DHT22;47029;50.994;2.876;2022-08-14T00:23:08;22.30;75.90
61151;DHT22;47029;50.994;2.876;2022-08-14T00:25:35;22.40;76.10
61151;DHT22;47029;50.994;2.876;2022-08-14T00:28:01;22.40;76.20
61151;DHT22;47029;50.994;2.876;2022-08-14T00:30:28;22.50;76.10
61151;DHT22;47029;50.994;2.876;2022-08-14T00:32:54;22.50;75.90
61151;DHT22;47029;50.994;2.876;2022-08-14T00:35:20;22.60;76.00
61151;DHT22;47029;50.994;2.876;2022-08-14T00:37:46;22.70;75.70
61151;DHT22;47029;50.994;2.876;2022-08-14T00:40:14;22.80;75.60
61151;DHT22;47029;50.994;2.876;2022-08-14T00:42:41;22.80;75.60
61151;DHT22;47029;50.994;2.876;2022-08-14T00:45:10;22.80;75.20
61151;DHT22;47029;50.994;2.876;2022-08-14T00:47:37;22.60;75.50
61151;DHT22;47029;50.994;2.876;2022-08-14T00:50:05;22.60;75.50
61151;DHT22;47029;50.994;2.876;2022-08-14T00:52:32;22.50;75.70
61151;DHT22;47029;50.994;2.876;2022-08-14T00:54:58;22.50;75.90
61151;DHT22;47029;50.994;2.876;2022-08-14T00:57:26;22.50;76.30
61151;DHT22;47029;50.994;2.876;2022-08-14T00:59:53;22.40;76.60
61151;DHT22;47029;50.994;2.876;2022-08-14T01:02:22;22.30;77.00
61151;DHT22;47029;50.994;2.876;2022-08-14T01:04:52;22.30;78.10
61151;DHT22;47029;50.994;2.876;2022-08-14T01:07:19;22.10;78.30
61151;DHT22;47029;50.994;2.876;2022-08-14T01:09:54;22.00;78.40
61151;DHT22;47029;50.994;2.876;2022-08-14T01:12:21;21.80;78.50
61151;DHT22;47029;50.994;2.876;2022-08-14T01:14:48;21.60;79.10
61151;DHT22;47029;50.994;2.876;2022-08-14T01:17:17;21.60;79.60
61151;DHT22;47029;50.994;2.876;2022-08-14T01:19:44;21.70;79.00
61151;DHT22;47029;50.994;2.876;2022-08-14T01:22:28;21.90;79.20
61151;DHT22;47029;50.994;2.876;2022-08-14T01:24:54;22.00;79.20
61151;DHT22;47029;50.994;2.876;2022-08-14T01:27:22;21.70;79.40
61151;DHT22;47029;50.994;2.876;2022-08-14T01:29:51;21.80;79.30
61151;DHT22;47029;50.994;2.876;2022-08-14T01:32:18;21.80;79.70
61151;DHT22;47029;50.994;2.876;2022-08-14T01:34:50;21.70;78.50
61151;DHT22;47029;50.994;2.876;2022-08-14T01:37:18;21.60;79.10
61151;DHT22;47029;50.994;2.876;2022-08-14T01:39:48;21.40;79.90
61151;DHT22;47029;50.994;2.876;2022-08-14T01:42:13;21.50;79.50
61151;DHT22;47029;50.994;2.876;2022-08-14T01:44:39;21.50;79.60
61151;DHT22;47029;50.994;2.876;2022-08-14T01:47:08;21.60;79.10
61151;DHT22;47029;50.994;2.876;2022-08-14T01:49:39;21.60;78.40
61151;DHT22;47029;50.994;2.876;2022-08-14T01:52:05;21.70;78.20
61151;DHT22;47029;50.994;2.876;2022-08-14T01:54:31;21.90;77.10
61151;DHT22;47029;50.994;2.876;2022-08-14T01:56:57;22.00;77.40
61151;DHT22;47029;50.994;2.876;2022-08-14T01:59:30;21.90;77.90
61151;DHT22;47029;50.994;2.876;2022-08-14T02:01:58;22.10;76.60
61151;DHT22;47029;50.994;2.876;2022-08-14T02:04:28;22.10;76.60
61151;DHT22;47029;50.994;2.876;2022-08-14T02:06:55;22.00;77.10
61151;DHT22;47029;50.994;2.876;2022-08-14T02:09:21;22.00;77.50
61151;DHT22;47029;50.994;2.876;2022-08-14T02:11:49;22.00;77.90
61151;DHT22;47029;50.994;2.876;2022-08-14T02:14:15;21.90;77.10
61151;DHT22;47029;50.994;2.876;2022-08-14T02:16:44;21.80;77.90
61151;DHT22;47029;50.994;2.876;2022-08-14T02:19:15;21.70;78.30
61151;DHT22;47029;50.994;2.876;2022-08-14T02:21:43;21.40;78.80
61151;DHT22;47029;50.994;2.876;2022-08-14T02:24:10;21.40;78.60
61151;DHT22;47029;50.994;2.876;2022-08-14T02:26:40;21.30;78.70
61151;DHT22;47029;50.994;2.876;2022-08-14T02:29:08;21.30;78.70
61151;DHT22;47029;50.994;2.876;2022-08-14T02:31:36;21.30;78.80
61151;DHT22;47029;50.994;2.876;2022-08-14T02:34:05;21.30;79.10
61151;DHT22;47029;50.994;2.876;2022-08-14T02:36:31;21.20;79.10
61151;DHT22;47029;50.994;2.876;2022-08-14T02:38:57;21.20;79.40
61151;DHT22;47029;50.994;2.876;2022-08-14T02:41:23;21.20;79.60
61151;DHT22;47029;50.994;2.876;2022-08-14T02:43:50;21.20;80.20
61151;DHT22;47029;50.994;2.876;2022-08-14T02:46:16;21.00;80.00
61151;DHT22;47029;50.994;2.876;2022-08-14T02:48:42;21.10;80.50
61151;DHT22;47029;50.994;2.876;2022-08-14T02:51:11;21.00;80.50
61151;DHT22;47029;50.994;2.876;2022-08-14T02:53:39;21.00;80.30
61151;DHT22;47029;50.994;2.876;2022-08-14T02:56:07;20.90;80.60
61151;DHT22;47029;50.994;2.876;2022-08-14T02:58:35;20.90;80.70
61151;DHT22;47029;50.994;2.876;2022-08-14T03:01:03;20.80;81.10
61151;DHT22;47029;50.994;2.876;2022-08-14T03:03:29;20.70;81.30
61151;DHT22;47029;50.994;2.876;2022-08-14T03:05:56;20.70;81.60
61151;DHT22;47029;50.994;2.876;2022-08-14T03:08:22;20.70;81.80
61151;DHT22;47029;50.994;2.876;2022-08-14T03:10:56;20.60;81.90
61151;DHT22;47029;50.994;2.876;2022-08-14T03:13:22;20.70;82.10
61151;DHT22;47029;50.994;2.876;2022-08-14T03:15:49;20.70;82.50
61151;DHT22;47029;50.994;2.876;2022-08-14T03:18:20;20.80;82.40
61151;DHT22;47029;50.994;2.876;2022-08-14T03:20:50;20.80;82.60
61151;DHT22;47029;50.994;2.876;2022-08-14T03:23:17;20.80;82.50
61151;DHT22;47029;50.994;2.876;2022-08-14T03:25:43;20.70;82.10
61151;DHT22;47029;50.994;2.876;2022-08-14T03:28:09;20.80;82.30
61151;DHT22;47029;50.994;2.876;2022-08-14T03:30:35;20.70;82.20
61151;DHT22;47029;50.994;2.876;2022-08-14T03:33:03;20.70;82.50
61151;DHT22;47029;50.994;2.876;2022-08-14T03:35:29;20.60;82.40
61151;DHT22;47029;50.994;2.876;2022-08-14T03:38:03;20.50;82.50
61151;DHT22;47029;50.994;2.876;2022-08-14T03:40:29;20.40;82.40
61151;DHT22;47029;50.994;2.876;2022-08-14T03:42:54;20.40;82.80
61151;DHT22;47029;50.994;2.876;2022-08-14T03:45:20;20.40;82.80
61151;DHT22;47029;50.994;2.876;2022-08-14T03:47:49;20.40;83.00
61151;DHT22;47029;50.994;2.876;2022-08-14T03:50:15;20.40;83.10
61151;DHT22;47029;50.994;2.876;2022-08-14T03:52:41;20.40;83.30
61151;DHT22;47029;50.994;2.876;2022-08-14T03:55:10;20.40;83.40
61151;DHT22;47029;50.994;2.876;2022-08-14T03:57:38;20.40;82.70
61151;DHT22;47029;50.994;2.876;2022-08-14T04:00:07;20.40;82.90
61151;DHT22;47029;50.994;2.876;2022-08-14T04:02:37;20.30;83.10
61151;DHT22;47029;50.994;2.876;2022-08-14T04:05:05;20.30;83.30
61151;DHT22;47029;50.994;2.876;2022-08-14T04:07:31;20.20;83.40
61151;DHT22;47029;50.994;2.876;2022-08-14T04:09:57;20.20;83.70
61151;DHT22;47029;50.994;2.876;2022-08-14T04:12:23;20.20;83.50
61151;DHT22;47029;50.994;2.876;2022-08-14T04:14:49;20.10;83.70
61151;DHT22;47029;50.994;2.876;2022-08-14T04:17:17;20.10;84.00
61151;DHT22;47029;50.994;2.876;2022-08-14T04:19:44;20.10;84.00
61151;DHT22;47029;50.994;2.876;2022-08-14T04:22:11;20.10;84.20
61151;DHT22;47029;50.994;2.876;2022-08-14T04:24:38;20.00;84.00
61151;DHT22;47029;50.994;2.876;2022-08-14T04:27:09;19.90;84.00
61151;DHT22;47029;50.994;2.876;2022-08-14T04:29:39;19.90;83.70
61151;DHT22;47029;50.994;2.876;2022-08-14T04:32:08;19.80;83.30
61151;DHT22;47029;50.994;2.876;2022-08-14T04:34:35;19.70;83.50
61151;DHT22;47029;50.994;2.876;2022-08-14T04:37:04;19.60;83.90
61151;DHT22;47029;50.994;2.876;2022-08-14T04:39:50;19.50;84.40
61151;DHT22;47029;50.994;2.876;2022-08-14T04:42:34;19.40;85.10
61151;DHT22;47029;50.994;2.876;2022-08-14T04:45:21;19.30;85.40
61151;DHT22;47029;50.994;2.876;2022-08-14T04:47:51;19.40;85.70
61151;DHT22;47029;50.994;2.876;2022-08-14T04:50:40;19.40;85.60
61151;DHT22;47029;50.994;2.876;2022-08-14T04:53:05;19.40;85.60
61151;DHT22;47029;50.994;2.876;2022-08-14T04:55:31;19.30;85.70
61151;DHT22;47029;50.994;2.876;2022-08-14T04:57:58;19.30;85.80
61151;DHT22;47029;50.994;2.876;2022-08-14T05:00:24;19.40;85.90
61151;DHT22;47029;50.994;2.876;2022-08-14T05:02:51;19.40;85.90
61151;DHT22;47029;50.994;2.876;2022-08-14T05:05:16;19.30;86.00
61151;DHT22;47029;50.994;2.876;2022-08-14T05:07:42;19.30;86.20
61151;DHT22;47029;50.994;2.876;2022-08-14T05:10:08;19.30;86.20
61151;DHT22;47029;50.994;2.876;2022-08-14T05:12:34;19.30;86.10
61151;DHT22;47029;50.994;2.876;2022-08-14T05:15:01;19.30;86.30
61151;DHT22;47029;50.994;2.876;2022-08-14T05:17:27;19.20;86.70
61151;DHT22;47029;50.994;2.876;2022-08-14T05:19:53;19.30;87.10
61151;DHT22;47029;50.994;2.876;2022-08-14T05:22:18;19.30;87.40
61151;DHT22;47029;50.994;2.876;2022-08-14T05:24:46;19.40;87.30
61151;DHT22;47029;50.994;2.876;2022-08-14T05:27:15;19.50;87.60
61151;DHT22;47029;50.994;2.876;2022-08-14T05:29:45;19.60;86.90
61151;DHT22;47029;50.994;2.876;2022-08-14T05:32:12;19.60;87.30
61151;DHT22;47029;50.994;2.876;2022-08-14T05:34:39;19.50;87.20
61151;DHT22;47029;50.994;2.876;2022-08-14T05:37:05;19.50;88.10
61151;DHT22;47029;50.994;2.876;2022-08-14T05:39:31;19.60;88.40
61151;DHT22;47029;50.994;2.876;2022-08-14T05:41:57;19.80;88.30
61151;DHT22;47029;50.994;2.876;2022-08-14T05:44:23;19.90;88.20
61151;DHT22;47029;50.994;2.876;2022-08-14T05:46:49;20.10;87.90
61151;DHT22;47029;50.994;2.876;2022-08-14T05:49:15;20.20;87.60
61151;DHT22;47029;50.994;2.876;2022-08-14T05:51:41;20.30;87.70
61151;DHT22;47029;50.994;2.876;2022-08-14T05:54:09;20.40;87.80
61151;DHT22;47029;50.994;2.876;2022-08-14T05:56:35;20.50;87.70
61151;DHT22;47029;50.994;2.876;2022-08-14T05:59:00;20.80;88.30
61151;DHT22;47029;50.994;2.876;2022-08-14T06:01:27;21.10;87.90
61151;DHT22;47029;50.994;2.876;2022-08-14T06:03:53;21.40;87.30
61151;DHT22;47029;50.994;2.876;2022-08-14T06:06:19;21.70;85.50
61151;DHT22;47029;50.994;2.876;2022-08-14T06:08:45;21.80;85.00
61151;DHT22;47029;50.994;2.876;2022-08-14T06:11:11;22.00;84.60
61151;DHT22;47029;50.994;2.876;2022-08-14T06:13:39;22.10;84.40
61151;DHT22;47029;50.994;2.876;2022-08-14T06:16:05;22.30;83.80
61151;DHT22;47029;50.994;2.876;2022-08-14T06:18:32;22.50;83.40
61151;DHT22;47029;50.994;2.876;2022-08-14T06:20:58;22.60;82.90
61151;DHT22;47029;50.994;2.876;2022-08-14T06:23:24;22.60;83.40
61151;DHT22;47029;50.994;2.876;2022-08-14T06:25:50;22.90;82.60
61151;DHT22;47029;50.994;2.876;2022-08-14T06:28:17;23.10;81.10
61151;DHT22;47029;50.994;2.876;2022-08-14T06:30:44;23.20;79.00
61151;DHT22;47029;50.994;2.876;2022-08-14T06:33:09;23.50;79.20
61151;DHT22;47029;50.994;2.876;2022-08-14T06:35:36;23.70;79.40
61151;DHT22;47029;50.994;2.876;2022-08-14T06:38:02;23.80;78.30
61151;DHT22;47029;50.994;2.876;2022-08-14T06:40:30;23.80;76.10
61151;DHT22;47029;50.994;2.876;2022-08-14T06:43:04;24.10;75.40
61151;DHT22;47029;50.994;2.876;2022-08-14T06:45:35;24.50;74.20
61151;DHT22;47029;50.994;2.876;2022-08-14T06:48:02;24.80;71.80
61151;DHT22;47029;50.994;2.876;2022-08-14T06:50:28;25.20;72.60
61151;DHT22;47029;50.994;2.876;2022-08-14T06:52:59;25.50;70.50
61151;DHT22;47029;50.994;2.876;2022-08-14T06:55:25;25.40;68.90
61151;DHT22;47029;50.994;2.876;2022-08-14T06:57:51;25.50;69.70
61151;DHT22;47029;50.994;2.876;2022-08-14T07:00:19;25.60;69.20
61151;DHT22;47029;50.994;2.876;2022-08-14T07:02:46;25.60;68.80
61151;DHT22;47029;50.994;2.876;2022-08-14T07:05:31;25.60;69.20
61151;DHT22;47029;50.994;2.876;2022-08-14T07:08:28;25.40;70.70
61151;DHT22;47029;50.994;2.876;2022-08-14T07:10:56;25.60;70.30
61151;DHT22;47029;50.994;2.876;2022-08-14T07:13:23;25.80;69.90
61151;DHT22;47029;50.994;2.876;2022-08-14T07:15:52;25.80;71.30
61151;DHT22;47029;50.994;2.876;2022-08-14T07:18:22;25.90;69.80
61151;DHT22;47029;50.994;2.876;2022-08-14T07:20:49;26.10;70.00
61151;DHT22;47029;50.994;2.876;2022-08-14T07:23:16;26.40;67.80
61151;DHT22;47029;50.994;2.876;2022-08-14T07:25:43;26.50;69.10
61151;DHT22;47029;50.994;2.876;2022-08-14T07:28:23;26.30;67.40
61151;DHT22;47029;50.994;2.876;2022-08-14T07:30:51;26.10;68.00
61151;DHT22;47029;50.994;2.876;2022-08-14T07:33:20;26.10;68.70
61151;DHT22;47029;50.994;2.876;2022-08-14T07:35:46;26.30;68.80
61151;DHT22;47029;50.994;2.876;2022-08-14T07:38:17;26.10;67.90
61151;DHT22;47029;50.994;2.876;2022-08-14T07:40:45;26.40;67.80
61151;DHT22;47029;50.994;2.876;2022-08-14T07:43:11;26.70;66.90
61151;DHT22;47029;50.994;2.876;2022-08-14T07:45:38;26.90;66.20
61151;DHT22;47029;50.994;2.876;2022-08-14T07:48:04;27.10;66.40
61151;DHT22;47029;50.994;2.876;2022-08-14T07:50:32;27.30;65.30
61151;DHT22;47029;50.994;2.876;2022-08-14T07:52:58;27.70;64.40
61151;DHT22;47029;50.994;2.876;2022-08-14T07:55:25;27.70;65.40
61151;DHT22;47029;50.994;2.876;2022-08-14T07:57:51;27.80;65.30
61151;DHT22;47029;50.994;2.876;2022-08-14T08:00:21;27.90;64.60
61151;DHT22;47029;50.994;2.876;2022-08-14T08:02:52;27.80;66.20
61151;DHT22;47029;50.994;2.876;2022-08-14T08:05:20;27.70;68.70
61151;DHT22;47029;50.994;2.876;2022-08-14T08:07:46;27.50;67.80
61151;DHT22;47029;50.994;2.876;2022-08-14T08:10:18;27.50;69.80
61151;DHT22;47029;50.994;2.876;2022-08-14T08:13:13;27.40;67.40
61151;DHT22;47029;50.994;2.876;2022-08-14T08:15:49;27.30;68.80
61151;DHT22;47029;50.994;2.876;2022-08-14T08:18:16;27.20;67.90
61151;DHT22;47029;50.994;2.876;2022-08-14T08:20:44;27.10;68.50
61151;DHT22;47029;50.994;2.876;2022-08-14T08:23:15;27.00;67.50
61151;DHT22;47029;50.994;2.876;2022-08-14T08:25:43;26.80;67.00
61151;DHT22;47029;50.994;2.876;2022-08-14T08:28:12;26.80;67.70
61151;DHT22;47029;50.994;2.876;2022-08-14T08:30:41;26.90;67.40
61151;DHT22;47029;50.994;2.876;2022-08-14T08:33:09;27.20;67.10
61151;DHT22;47029;50.994;2.876;2022-08-14T08:35:36;27.10;67.70
61151;DHT22;47029;50.994;2.876;2022-08-14T08:38:10;27.20;68.60
61151;DHT22;47029;50.994;2.876;2022-08-14T08:40:41;27.30;68.40
61151;DHT22;47029;50.994;2.876;2022-08-14T08:43:28;27.60;65.60
61151;DHT22;47029;50.994;2.876;2022-08-14T08:46:03;27.40;65.50
61151;DHT22;47029;50.994;2.876;2022-08-14T08:48:42;27.40;65.30
61151;DHT22;47029;50.994;2.876;2022-08-14T08:51:08;27.60;65.00
61151;DHT22;47029;50.994;2.876;2022-08-14T08:53:35;27.90;66.80
61151;DHT22;47029;50.994;2.876;2022-08-14T08:56:01;28.20;65.70
61151;DHT22;47029;50.994;2.876;2022-08-14T08:58:28;28.30;64.00
61151;DHT22;47029;50.994;2.876;2022-08-14T09:00:56;28.50;64.10
61151;DHT22;47029;50.994;2.876;2022-08-14T09:03:25;28.60;62.60
61151;DHT22;47029;50.994;2.876;2022-08-14T09:05:57;28.50;61.00
61151;DHT22;47029;50.994;2.876;2022-08-14T09:08:25;28.60;60.50
61151;DHT22;47029;50.994;2.876;2022-08-14T09:10:53;28.40;61.00
61151;DHT22;47029;50.994;2.876;2022-08-14T09:13:20;28.70;60.40
61151;DHT22;47029;50.994;2.876;2022-08-14T09:15:48;28.70;60.30
61151;DHT22;47029;50.994;2.876;2022-08-14T09:18:16;28.70;60.40
61151;DHT22;47029;50.994;2.876;2022-08-14T09:20:45;28.60;60.30
61151;DHT22;47029;50.994;2.876;2022-08-14T09:23:12;28.60;62.20
61151;DHT22;47029;50.994;2.876;2022-08-14T09:25:40;28.80;60.10
61151;DHT22;47029;50.994;2.876;2022-08-14T09:28:07;28.70;60.50
61151;DHT22;47029;50.994;2.876;2022-08-14T09:30:36;28.80;60.80
61151;DHT22;47029;50.994;2.876;2022-08-14T09:36:05;29.30;59.80
61151;DHT22;47029;50.994;2.876;2022-08-14T09:38:46;29.40;59.60
61151;DHT22;47029;50.994;2.876;2022-08-14T09:41:46;29.50;59.90
61151;DHT22;47029;50.994;2.876;2022-08-14T09:47:12;30.30;58.20
61151;DHT22;47029;50.994;2.876;2022-08-14T09:49:42;30.30;58.40
61151;DHT22;47029;50.994;2.876;2022-08-14T09:52:09;30.30;57.40
61151;DHT22;47029;50.994;2.876;2022-08-14T09:54:45;30.10;56.10
61151;DHT22;47029;50.994;2.876;2022-08-14T09:57:26;30.00;56.10
61151;DHT22;47029;50.994;2.876;2022-08-14T09:59:56;30.70;57.30
61151;DHT22;47029;50.994;2.876;2022-08-14T10:02:28;30.80;56.20
61151;DHT22;47029;50.994;2.876;2022-08-14T10:05:03;30.90;54.70
61151;DHT22;47029;50.994;2.876;2022-08-14T10:07:45;30.60;55.50
61151;DHT22;47029;50.994;2.876;2022-08-14T10:10:33;30.20;56.10
61151;DHT22;47029;50.994;2.876;2022-08-14T10:13:03;30.20;57.50
61151;DHT22;47029;50.994;2.876;2022-08-14T10:15:31;30.20;56.20
61151;DHT22;47029;50.994;2.876;2022-08-14T10:18:14;30.20;55.70
61151;DHT22;47029;50.994;2.876;2022-08-14T10:20:43;30.10;55.70
61151;DHT22;47029;50.994;2.876;2022-08-14T10:23:14;30.00;56.60
61151;DHT22;47029;50.994;2.876;2022-08-14T10:25:45;29.90;56.00
61151;DHT22;47029;50.994;2.876;2022-08-14T10:28:12;29.90;56.00
61151;DHT22;47029;50.994;2.876;2022-08-14T10:30:42;30.00;55.40
61151;DHT22;47029;50.994;2.876;2022-08-14T10:33:23;30.10;55.90
61151;DHT22;47029;50.994;2.876;2022-08-14T10:35:49;30.10;55.80
61151;DHT22;47029;50.994;2.876;2022-08-14T10:38:33;30.00;57.00
61151;DHT22;47029;50.994;2.876;2022-08-14T10:41:15;30.10;56.40
61151;DHT22;47029;50.994;2.876;2022-08-14T10:44:08;30.30;57.60
61151;DHT22;47029;50.994;2.876;2022-08-14T10:49:17;30.20;57.40
61151;DHT22;47029;50.994;2.876;2022-08-14T10:54:35;29.90;56.10
61151;DHT22;47029;50.994;2.876;2022-08-14T11:00:13;30.00;57.40
61151;DHT22;47029;50.994;2.876;2022-08-14T11:02:40;30.10;55.30
61151;DHT22;47029;50.994;2.876;2022-08-14T11:05:12;30.30;55.00
61151;DHT22;47029;50.994;2.876;2022-08-14T11:10:22;30.50;55.00
61151;DHT22;47029;50.994;2.876;2022-08-14T11:12:54;30.70;54.60
61151;DHT22;47029;50.994;2.876;2022-08-14T11:15:27;30.80;54.80
61151;DHT22;47029;50.994;2.876;2022-08-14T11:17:54;30.90;53.70
61151;DHT22;47029;50.994;2.876;2022-08-14T11:20:25;31.00;54.10
61151;DHT22;47029;50.994;2.876;2022-08-14T11:22:55;31.20;52.60
61151;DHT22;47029;50.994;2.876;2022-08-14T11:25:23;31.30;51.40
61151;DHT22;47029;50.994;2.876;2022-08-14T11:27:53;31.40;51.60
61151;DHT22;47029;50.994;2.876;2022-08-14T11:30:22;31.40;52.10
61151;DHT22;47029;50.994;2.876;2022-08-14T11:32:49;31.30;51.60
61151;DHT22;47029;50.994;2.876;2022-08-14T11:35:20;31.40;51.10
61151;DHT22;47029;50.994;2.876;2022-08-14T11:38:02;31.50;51.60
61151;DHT22;47029;50.994;2.876;2022-08-14T11:40:30;31.50;50.00
61151;DHT22;47029;50.994;2.876;2022-08-14T11:42:57;31.10;50.90
61151;DHT22;47029;50.994;2.876;2022-08-14T11:45:24;30.90;51.60
61151;DHT22;47029;50.994;2.876;2022-08-14T11:47:51;30.70;51.40
61151;DHT22;47029;50.994;2.876;2022-08-14T11:50:33;30.70;53.80
61151;DHT22;47029;50.994;2.876;2022-08-14T11:52:59;30.90;51.60
61151;DHT22;47029;50.994;2.876;2022-08-14T11:55:32;30.90;51.70
61151;DHT22;47029;50.994;2.876;2022-08-14T11:58:10;30.90;52.40
61151;DHT22;47029;50.994;2.876;2022-08-14T12:00:48;30.80;52.00
61151;DHT22;47029;50.994;2.876;2022-08-14T12:03:14;30.70;51.80
61151;DHT22;47029;50.994;2.876;2022-08-14T12:05:40;31.00;52.50
61151;DHT22;47029;50.994;2.876;2022-08-14T12:08:08;31.20;51.90
61151;DHT22;47029;50.994;2.876;2022-08-14T12:10:41;31.50;52.30
61151;DHT22;47029;50.994;2.876;2022-08-14T12:13:17;31.80;51.30
61151;DHT22;47029;50.994;2.876;2022-08-14T12:15:46;31.90;50.80
61151;DHT22;47029;50.994;2.876;2022-08-14T12:18:35;31.70;50.60
61151;DHT22;47029;50.994;2.876;2022-08-14T12:21:23;31.70;51.10
61151;DHT22;47029;50.994;2.876;2022-08-14T12:24:08;32.00;51.00
61151;DHT22;47029;50.994;2.876;2022-08-14T12:26:35;31.90;51.50
61151;DHT22;47029;50.994;2.876;2022-08-14T12:29:13;31.90;50.90
61151;DHT22;47029;50.994;2.876;2022-08-14T12:31:42;31.90;51.80
61151;DHT22;47029;50.994;2.876;2022-08-14T12:34:11;32.20;50.50
61151;DHT22;47029;50.994;2.876;2022-08-14T12:36:37;32.50;49.70
61151;DHT22;47029;50.994;2.876;2022-08-14T12:39:17;32.70;50.00
61151;DHT22;47029;50.994;2.876;2022-08-14T12:41:53;32.80;49.20
61151;DHT22;47029;50.994;2.876;2022-08-14T12:44:50;33.00;50.40
61151;DHT22;47029;50.994;2.876;2022-08-14T12:47:16;33.50;49.20
61151;DHT22;47029;50.994;2.876;2022-08-14T12:49:52;33.40;48.40
61151;DHT22;47029;50.994;2.876;2022-08-14T12:52:34;33.20;48.30
61151;DHT22;47029;50.994;2.876;2022-08-14T12:55:04;33.10;49.30
61151;DHT22;47029;50.994;2.876;2022-08-14T12:57:39;33.00;48.50
61151;DHT22;47029;50.994;2.876;2022-08-14T13:02:39;32.90;49.70
61151;DHT22;47029;50.994;2.876;2022-08-14T13:05:07;33.10;49.10
61151;DHT22;47029;50.994;2.876;2022-08-14T13:07:34;33.30;49.30
61151;DHT22;47029;50.994;2.876;2022-08-14T13:10:05;33.30;49.30
61151;DHT22;47029;50.994;2.876;2022-08-14T13:12:31;32.90;49.60
61151;DHT22;47029;50.994;2.876;2022-08-14T13:14:58;32.90;49.70
61151;DHT22;47029;50.994;2.876;2022-08-14T13:17:25;32.80;49.40
61151;DHT22;47029;50.994;2.876;2022-08-14T13:19:57;32.80;48.70
61151;DHT22;47029;50.994;2.876;2022-08-14T13:22:25;32.70;49.90
61151;DHT22;47029;50.994;2.876;2022-08-14T13:24:52;32.90;50.00
61151;DHT22;47029;50.994;2.876;2022-08-14T13:27:22;33.10;49.80
61151;DHT22;47029;50.994;2.876;2022-08-14T13:29:50;32.60;48.90
61151;DHT22;47029;50.994;2.876;2022-08-14T13:32:19;32.50;48.60
61151;DHT22;47029;50.994;2.876;2022-08-14T13:34:48;32.60;50.20
61151;DHT22;47029;50.994;2.876;2022-08-14T13:37:16;32.50;50.20
61151;DHT22;47029;50.994;2.876;2022-08-14T13:39:47;32.60;50.40
61151;DHT22;47029;50.994;2.876;2022-08-14T13:42:17;32.90;48.50
61151;DHT22;47029;50.994;2.876;2022-08-14T13:44:48;33.00;48.60
61151;DHT22;47029;50.994;2.876;2022-08-14T13:47:19;32.90;49.30
61151;DHT22;47029;50.994;2.876;2022-08-14T13:49:46;32.90;48.60
61151;DHT22;47029;50.994;2.876;2022-08-14T13:52:16;32.90;49.00
61151;DHT22;47029;50.994;2.876;2022-08-14T13:54:45;33.10;48.90
61151;DHT22;47029;50.994;2.876;2022-08-14T13:57:13;33.30;49.60
61151;DHT22;47029;50.994;2.876;2022-08-14T13:59:45;33.10;49.20
61151;DHT22;47029;50.994;2.876;2022-08-14T14:02:12;33.00;48.70
61151;DHT22;47029;50.994;2.876;2022-08-14T14:04:43;32.90;48.60
61151;DHT22;47029;50.994;2.876;2022-08-14T14:07:11;32.90;49.00
61151;DHT22;47029;50.994;2.876;2022-08-14T14:09:42;33.00;48.50
61151;DHT22;47029;50.994;2.876;2022-08-14T14:12:09;33.10;48.30
61151;DHT22;47029;50.994;2.876;2022-08-14T14:14:36;33.40;48.60
61151;DHT22;47029;50.994;2.876;2022-08-14T14:17:07;33.30;48.10
61151;DHT22;47029;50.994;2.876;2022-08-14T14:19:33;33.20;47.90
61151;DHT22;47029;50.994;2.876;2022-08-14T14:22:04;33.20;48.60
61151;DHT22;47029;50.994;2.876;2022-08-14T14:24:33;33.20;48.10
61151;DHT22;47029;50.994;2.876;2022-08-14T14:27:01;33.20;49.60
61151;DHT22;47029;50.994;2.876;2022-08-14T14:29:32;33.10;46.50
61151;DHT22;47029;50.994;2.876;2022-08-14T14:32:00;33.00;47.70
61151;DHT22;47029;50.994;2.876;2022-08-14T14:34:28;33.00;48.50
61151;DHT22;47029;50.994;2.876;2022-08-14T14:36:55;33.00;48.30
61151;DHT22;47029;50.994;2.876;2022-08-14T14:39:24;32.90;48.50
61151;DHT22;47029;50.994;2.876;2022-08-14T14:41:54;32.90;47.50
61151;DHT22;47029;50.994;2.876;2022-08-14T14:44:26;33.00;47.90
61151;DHT22;47029;50.994;2.876;2022-08-14T14:46:55;32.80;48.00
61151;DHT22;47029;50.994;2.876;2022-08-14T14:49:24;32.80;48.40
61151;DHT22;47029;50.994;2.876;2022-08-14T14:51:51;32.80;48.80
61151;DHT22;47029;50.994;2.876;2022-08-14T14:54:19;32.60;48.30
61151;DHT22;47029;50.994;2.876;2022-08-14T14:56:47;32.60;49.10
61151;DHT22;47029;50.994;2.876;2022-08-14T14:59:13;32.50;49.00
61151;DHT22;47029;50.994;2.876;2022-08-14T15:01:43;32.50;48.60
61151;DHT22;47029;50.994;2.876;2022-08-14T15:04:12;32.50;48.70
61151;DHT22;47029;50.994;2.876;2022-08-14T15:06:38;32.40;49.60
61151;DHT22;47029;50.994;2.876;2022-08-14T15:09:04;32.30;49.90
61151;DHT22;47029;50.994;2.876;2022-08-14T15:11:30;32.30;49.50
61151;DHT22;47029;50.994;2.876;2022-08-14T15:13:57;32.30;48.60
61151;DHT22;47029;50.994;2.876;2022-08-14T15:16:23;32.30;49.70
61151;DHT22;47029;50.994;2.876;2022-08-14T15:18:49;32.40;49.30
61151;DHT22;47029;50.994;2.876;2022-08-14T15:21:15;32.40;50.20
61151;DHT22;47029;50.994;2.876;2022-08-14T15:23:41;32.50;49.60
61151;DHT22;47029;50.994;2.876;2022-08-14T15:26:07;32.50;49.00
61151;DHT22;47029;50.994;2.876;2022-08-14T15:28:33;32.50;49.00
61151;DHT22;47029;50.994;2.876;2022-08-14T15:31:03;32.60;50.30
61151;DHT22;47029;50.994;2.876;2022-08-14T15:33:30;32.60;49.50
61151;DHT22;47029;50.994;2.876;2022-08-14T15:36:15;33.10;49.80
61151;DHT22;47029;50.994;2.876;2022-08-14T15:38:41;32.80;50.10
61151;DHT22;47029;50.994;2.876;2022-08-14T15:41:07;32.60;50.70
61151;DHT22;47029;50.994;2.876;2022-08-14T15:43:33;32.60;50.00
61151;DHT22;47029;50.994;2.876;2022-08-14T15:46:00;32.50;49.80
61151;DHT22;47029;50.994;2.876;2022-08-14T15:48:27;32.40;50.00
61151;DHT22;47029;50.994;2.876;2022-08-14T15:50:53;32.40;50.30
61151;DHT22;47029;50.994;2.876;2022-08-14T15:53:19;32.40;50.30
61151;DHT22;47029;50.994;2.876;2022-08-14T15:55:53;32.40;49.70
61151;DHT22;47029;50.994;2.876;2022-08-14T15:58:24;32.30;52.60
61151;DHT22;47029;50.994;2.876;2022-08-14T16:00:51;32.30;52.50
61151;DHT22;47029;50.994;2.876;2022-08-14T16:03:36;32.00;52.60